Time;durP1;ratioP1;P1;durP2;ratioP2;P2;SDS_P1;SDS_P2;PMS_P1;PMS_P2;Temp;Humidity;BMP_temperature;BMP_pressure;BME280_temperature;BME280_humidity;BME280_pressure;Samples;Min_cycle;Max_cycle;Signal;HPM_P1;HPM_P2
2021/03/18 00:01:46;;;;;;;10.85;6.40;;;-1.00;99.90;;;;;;5055958;28;20123;-69
2021/03/18 00:04:16;;;;;;;10.18;6.18;;;-1.00;99.90;;;;;;5057014;28;20028;-69
2021/03/18 00:06:42;;;;;;;9.88;5.90;;;-1.00;99.90;;;;;;5057296;28;20126;-69
2021/03/18 00:09:13;;;;;;;9.90;5.60;;;-1.10;99.90;;;;;;5056700;28;20036;-69
2021/03/18 00:11:41;;;;;;;9.25;6.28;;;-1.20;99.90;;;;;;5056653;28;20064;-69
2021/03/18 00:14:11;;;;;;;11.32;6.43;;;-1.30;99.90;;;;;;5056648;28;20055;-69
2021/03/18 00:16:36;;;;;;;10.88;6.28;;;-1.30;99.90;;;;;;5056550;28;20031;-69
2021/03/18 00:19:04;;;;;;;10.73;6.57;;;-1.20;99.90;;;;;;5056115;28;20028;-69
2021/03/18 00:21:29;;;;;;;11.70;7.30;;;-1.20;99.90;;;;;;5057114;28;20038;-68
2021/03/18 00:23:55;;;;;;;10.98;7.10;;;-1.20;99.90;;;;;;5056420;28;20063;-69
2021/03/18 00:26:26;;;;;;;36.33;9.15;;;-1.20;99.90;;;;;;5056279;28;20040;-69
2021/03/18 00:28:52;;;;;;;19.65;9.88;;;-1.10;99.90;;;;;;5055396;28;20055;-69
2021/03/18 00:31:32;;;;;;;16.05;9.05;;;-1.00;99.90;;;;;;5056554;28;20215;-69
2021/03/18 00:33:58;;;;;;;14.88;8.80;;;-1.00;99.90;;;;;;5054569;28;20051;-69
2021/03/18 00:36:25;;;;;;;17.73;9.68;;;-1.00;99.90;;;;;;5037672;28;20032;-69
2021/03/18 00:38:52;;;;;;;16.13;9.10;;;-1.00;99.90;;;;;;5056190;28;20055;-69
2021/03/18 00:41:18;;;;;;;16.08;9.63;;;-1.10;99.90;;;;;;5037683;28;20032;-69
2021/03/18 00:43:45;;;;;;;14.68;8.88;;;-1.00;99.90;;;;;;5052095;28;20036;-69
2021/03/18 00:46:11;;;;;;;16.05;9.38;;;-1.00;99.90;;;;;;5054145;28;20036;-69
2021/03/18 00:48:41;;;;;;;17.30;9.23;;;-0.90;99.90;;;;;;5055594;28;20036;-69
2021/03/18 00:51:11;;;;;;;14.52;8.88;;;-0.90;99.90;;;;;;5054833;28;20750;-69
2021/03/18 00:53:43;;;;;;;15.32;8.88;;;-1.00;99.90;;;;;;5054562;28;20048;-69
2021/03/18 00:56:15;;;;;;;22.08;10.85;;;-1.00;99.90;;;;;;5055723;28;20809;-69
2021/03/18 00:58:47;;;;;;;20.00;9.98;;;-0.80;99.90;;;;;;5055141;28;20850;-69
2021/03/18 01:01:22;;;;;;;17.48;9.55;;;-0.70;99.90;;;;;;5054523;28;20132;-69
2021/03/18 01:03:48;;;;;;;15.88;9.60;;;-0.60;99.90;;;;;;5054902;28;20082;-68
2021/03/18 01:06:26;;;;;;;18.38;10.38;;;-0.80;99.90;;;;;;5054361;28;20032;-68
2021/03/18 01:08:55;;;;;;;24.38;11.20;;;-0.80;99.90;;;;;;5053904;28;20030;-69
2021/03/18 01:11:27;;;;;;;25.85;12.15;;;-0.60;99.90;;;;;;5055873;28;20070;-69
2021/03/18 01:13:58;;;;;;;21.35;11.50;;;-0.50;99.90;;;;;;5049804;28;20359;-68
2021/03/18 01:16:30;;;;;;;18.98;10.40;;;-0.40;99.90;;;;;;5056148;28;20598;-69
2021/03/18 01:19:03;;;;;;;21.98;11.77;;;-0.60;99.90;;;;;;5055143;28;20083;-68
2021/03/18 01:21:38;;;;;;;26.02;11.65;;;-0.60;99.90;;;;;;5037242;28;20030;-68
2021/03/18 01:24:05;;;;;;;18.70;11.43;;;-0.60;99.90;;;;;;5055221;28;20107;-68
2021/03/18 01:26:31;;;;;;;23.02;10.95;;;-0.70;99.90;;;;;;5054612;28;20036;-69
2021/03/18 01:28:56;;;;;;;22.42;11.55;;;-0.70;99.90;;;;;;5036964;28;20877;-68
2021/03/18 01:31:22;;;;;;;20.48;10.95;;;-0.70;99.90;;;;;;5055447;28;20767;-69
2021/03/18 01:33:48;;;;;;;22.83;10.45;;;-0.80;99.90;;;;;;5055008;28;20064;-68
2021/03/18 01:36:14;;;;;;;14.65;9.10;;;-1.00;99.90;;;;;;5054650;28;20127;-69
2021/03/18 01:38:42;;;;;;;13.43;8.35;;;-1.00;99.90;;;;;;5049584;28;20029;-68
2021/03/18 01:41:08;;;;;;;15.38;9.07;;;-1.10;99.90;;;;;;5053591;28;20040;-68
2021/03/18 01:43:34;;;;;;;17.50;9.48;;;-1.20;99.90;;;;;;5036767;28;20028;-69
2021/03/18 01:46:00;;;;;;;16.90;8.93;;;-1.30;99.90;;;;;;5054238;28;20028;-68
2021/03/18 01:48:27;;;;;;;18.13;8.45;;;-1.30;99.90;;;;;;5033719;28;20085;-68
2021/03/18 01:50:54;;;;;;;15.63;9.43;;;-1.60;99.90;;;;;;5054213;28;20039;-68
2021/03/18 01:53:21;;;;;;;12.80;8.07;;;-1.60;99.90;;;;;;5054517;28;20109;-68
2021/03/18 01:55:48;;;;;;;14.45;8.73;;;-1.70;99.90;;;;;;5053900;28;20200;-68
2021/03/18 01:58:15;;;;;;;18.98;9.70;;;-1.70;99.90;;;;;;5054496;28;20060;-68
2021/03/18 02:00:43;;;;;;;15.48;9.00;;;-1.70;99.90;;;;;;5052568;28;20057;-69
2021/03/18 02:03:09;;;;;;;18.33;9.07;;;-1.70;99.90;;;;;;5053615;28;20024;-69
2021/03/18 02:05:35;;;;;;;15.85;9.30;;;-1.60;99.90;;;;;;5054713;28;20048;-69
2021/03/18 02:08:02;;;;;;;18.13;9.65;;;-1.50;99.90;;;;;;5053978;28;20033;-69
2021/03/18 02:10:30;;;;;;;20.40;10.80;;;-1.40;99.90;;;;;;5055048;28;20120;-69
2021/03/18 02:12:57;;;;;;;24.13;11.73;;;-1.20;99.90;;;;;;5053596;28;20039;-69
2021/03/18 02:15:27;;;;;;;22.88;12.10;;;-1.10;99.90;;;;;;5055013;28;20037;-69
2021/03/18 02:18:01;;;;;;;23.02;12.75;;;-1.00;99.90;;;;;;5055500;28;20511;-69
2021/03/18 02:20:46;;;;;;;20.60;11.82;;;-0.80;99.90;;;;;;5055397;28;20025;-67
2021/03/18 02:23:54;;;;;;;24.05;11.13;;;-0.80;99.90;;;;;;5055821;28;20063;-68
2021/03/18 02:26:37;;;;;;;30.80;13.85;;;-0.70;99.90;;;;;;5013767;28;20044;-68
2021/03/18 02:29:35;;;;;;;29.05;14.00;;;-0.50;99.90;;;;;;5053386;28;20036;-69
2021/03/18 02:32:22;;;;;;;30.65;14.10;;;-0.40;99.90;;;;;;5042619;28;20848;-68
2021/03/18 02:35:09;;;;;;;26.02;13.23;;;-0.40;99.90;;;;;;5056784;28;20394;-68
2021/03/18 02:37:38;;;;;;;21.30;12.50;;;-0.40;99.90;;;;;;5058369;28;20547;-68
2021/03/18 02:40:19;;;;;;;24.80;12.13;;;-0.40;99.90;;;;;;5057890;28;20719;-68
2021/03/18 02:42:50;;;;;;;19.40;11.45;;;-0.50;99.90;;;;;;5057755;28;20032;-68
2021/03/18 02:45:17;;;;;;;23.75;11.35;;;-0.60;99.90;;;;;;5039936;28;20151;-68
2021/03/18 02:47:44;;;;;;;18.13;10.43;;;-0.60;99.90;;;;;;5057107;28;20044;-68
2021/03/18 02:50:11;;;;;;;24.20;12.27;;;-0.60;99.90;;;;;;5055652;28;20028;-68
2021/03/18 02:52:40;;;;;;;20.17;10.90;;;-0.60;99.90;;;;;;5058773;28;20075;-68
2021/03/18 02:55:06;;;;;;;18.80;10.63;;;-0.40;99.90;;;;;;5058473;28;20937;-68
2021/03/18 02:57:35;;;;;;;22.27;11.48;;;-0.50;99.90;;;;;;5058714;28;20513;-68
2021/03/18 03:00:08;;;;;;;21.85;11.48;;;-0.50;99.90;;;;;;5059084;28;20039;-68
2021/03/18 03:02:35;;;;;;;25.23;11.77;;;-0.30;99.90;;;;;;5058411;28;20732;-69
2021/03/18 03:05:04;;;;;;;22.02;12.10;;;-0.30;99.90;;;;;;5058879;28;20064;-68
2021/03/18 03:07:30;;;;;;;23.23;12.35;;;-0.30;99.90;;;;;;5058523;28;20144;-68
2021/03/18 03:09:57;;;;;;;21.65;12.40;;;-0.30;99.90;;;;;;5058547;28;20040;-68
2021/03/18 03:12:27;;;;;;;25.48;13.10;;;-0.30;99.90;;;;;;5058725;28;20029;-68
2021/03/18 03:14:54;;;;;;;22.75;13.50;;;-0.30;99.90;;;;;;5058594;28;20823;-68
2021/03/18 03:17:22;;;;;;;28.50;13.18;;;-0.20;99.90;;;;;;5058000;28;20028;-68
2021/03/18 03:19:49;;;;;;;26.85;13.35;;;-0.10;99.90;;;;;;5058413;28;20051;-68
2021/03/18 03:22:15;;;;;;;26.77;13.90;;;-0.10;99.90;;;;;;5057314;28;20110;-68
2021/03/18 03:24:43;;;;;;;25.52;13.40;;;0.00;99.90;;;;;;5057787;28;20123;-68
2021/03/18 03:27:10;;;;;;;27.40;12.80;;;0.00;99.90;;;;;;5058334;28;20516;-68
2021/03/18 03:29:39;;;;;;;30.90;13.32;;;0.00;99.90;;;;;;5059067;28;20132;-68
2021/03/18 03:32:07;;;;;;;25.27;12.57;;;0.00;99.90;;;;;;5058417;28;20475;-68
2021/03/18 03:34:33;;;;;;;26.65;12.98;;;0.00;99.90;;;;;;5058368;28;20036;-68
2021/03/18 03:36:59;;;;;;;20.77;11.65;;;-0.10;99.90;;;;;;5057879;28;20032;-68
2021/03/18 03:39:24;;;;;;;22.73;12.02;;;-0.10;99.90;;;;;;5056002;28;20032;-68
2021/03/18 03:41:50;;;;;;;21.95;11.90;;;-0.20;99.90;;;;;;5058203;28;20024;-68
2021/03/18 03:44:16;;;;;;;22.48;11.25;;;-0.10;99.90;;;;;;5058019;28;20572;-68
2021/03/18 03:46:42;;;;;;;18.70;10.75;;;-0.20;99.90;;;;;;5056964;28;20036;-70
2021/03/18 03:49:10;;;;;;;18.95;11.02;;;-0.20;99.90;;;;;;5057981;28;20058;-70
2021/03/18 03:51:52;;;;;;;20.27;10.90;;;-0.30;99.90;;;;;;5057658;28;20893;-70
2021/03/18 03:54:20;;;;;;;20.55;10.50;;;-0.30;99.90;;;;;;5056695;28;20040;-70
2021/03/18 03:56:51;;;;;;;19.77;10.88;;;-0.30;99.90;;;;;;5055352;28;20039;-70
2021/03/18 03:59:20;;;;;;;20.60;10.70;;;-0.30;99.90;;;;;;5057271;28;20442;-70
2021/03/18 04:01:52;;;;;;;16.65;10.50;;;-0.30;99.90;;;;;;5055239;28;20032;-70
2021/03/18 04:04:26;;;;;;;17.45;10.15;;;-0.30;99.90;;;;;;5033184;28;20040;-70
2021/03/18 04:06:58;;;;;;;18.50;10.45;;;-0.30;99.90;;;;;;5053648;28;20784;-70
2021/03/18 04:09:24;;;;;;;20.33;10.43;;;-0.30;99.90;;;;;;5056477;28;20029;-68
2021/03/18 04:11:52;;;;;;;18.05;10.15;;;-0.30;99.90;;;;;;5057144;28;20051;-68
2021/03/18 04:14:22;;;;;;;17.88;10.10;;;-0.30;99.90;;;;;;5056950;28;20147;-68
2021/03/18 04:16:49;;;;;;;16.00;9.43;;;-0.30;99.90;;;;;;5056403;28;20774;-68
2021/03/18 04:19:17;;;;;;;17.67;10.10;;;-0.30;99.90;;;;;;5054510;28;20032;-68
2021/03/18 04:21:48;;;;;;;16.73;9.75;;;-0.30;99.90;;;;;;5056997;28;20078;-68
2021/03/18 04:24:14;;;;;;;20.98;10.82;;;-0.30;99.90;;;;;;5056211;28;20485;-68
2021/03/18 04:26:42;;;;;;;15.82;9.70;;;-0.30;99.90;;;;;;5056431;28;20051;-68
2021/03/18 04:29:08;;;;;;;17.17;10.13;;;-0.30;99.90;;;;;;5055827;28;20040;-69
2021/03/18 04:31:40;;;;;;;17.80;10.27;;;-0.30;99.90;;;;;;5038056;28;20485;-68
2021/03/18 04:34:07;;;;;;;17.52;10.32;;;-0.30;99.90;;;;;;5049413;28;20047;-68
2021/03/18 04:36:35;;;;;;;19.25;10.77;;;-0.40;99.90;;;;;;5056326;28;20067;-68
2021/03/18 04:39:03;;;;;;;19.08;10.52;;;-0.30;99.90;;;;;;5054192;28;20432;-68
2021/03/18 04:41:32;;;;;;;17.48;10.70;;;-0.40;99.90;;;;;;5056597;28;20794;-70
2021/03/18 04:43:58;;;;;;;17.02;10.10;;;-0.40;99.90;;;;;;5055705;28;20726;-70
2021/03/18 04:46:25;;;;;;;20.33;11.43;;;-0.40;99.90;;;;;;5054609;28;20028;-70
2021/03/18 04:48:53;;;;;;;18.55;10.43;;;-0.40;99.90;;;;;;5055653;28;20044;-70
2021/03/18 04:51:19;;;;;;;20.60;11.25;;;-0.30;99.90;;;;;;5053676;28;20028;-70
2021/03/18 04:53:45;;;;;;;18.90;10.63;;;-0.20;99.90;;;;;;5039778;28;20106;-68
2021/03/18 04:56:10;;;;;;;23.13;11.10;;;-0.20;99.90;;;;;;5054538;28;20029;-68
2021/03/18 04:58:39;;;;;;;25.05;12.55;;;-0.20;99.90;;;;;;5055303;28;20051;-68
2021/03/18 05:01:06;;;;;;;24.80;12.85;;;0.00;99.90;;;;;;5051555;28;20886;-68
2021/03/18 05:03:33;;;;;;;24.55;12.55;;;0.00;99.90;;;;;;5052742;28;20112;-68
2021/03/18 05:06:03;;;;;;;26.13;12.63;;;0.00;99.90;;;;;;5046326;28;20101;-68
2021/03/18 05:08:30;;;;;;;27.42;13.55;;;0.00;99.90;;;;;;5052742;28;20039;-68
2021/03/18 05:10:56;;;;;;;23.88;12.27;;;0.00;99.90;;;;;;5055755;28;20408;-68
2021/03/18 05:13:25;;;;;;;24.13;14.10;;;-0.10;99.90;;;;;;5055411;28;20055;-68
2021/03/18 05:15:51;;;;;;;24.42;13.32;;;-0.10;99.90;;;;;;5037011;28;20090;-68
2021/03/18 05:18:17;;;;;;;24.55;13.27;;;-0.10;99.90;;;;;;5052645;28;20032;-68
2021/03/18 05:20:45;;;;;;;25.85;14.25;;;-0.10;99.90;;;;;;5037527;28;20559;-68
2021/03/18 05:23:13;;;;;;;19.92;11.63;;;-0.20;99.90;;;;;;5055045;28;20934;-68
2021/03/18 05:25:39;;;;;;;20.45;12.73;;;-0.20;99.90;;;;;;5055440;28;20028;-69
2021/03/18 05:28:06;;;;;;;26.13;13.35;;;-0.30;99.90;;;;;;5055014;28;20028;-70
2021/03/18 05:30:33;;;;;;;24.83;13.20;;;-0.30;99.90;;;;;;5035401;28;20468;-70
2021/03/18 05:33:01;;;;;;;27.58;13.82;;;-0.20;99.90;;;;;;5049788;28;20051;-70
2021/03/18 05:35:27;;;;;;;24.88;13.05;;;-0.10;99.90;;;;;;5055500;28;20044;-73
2021/03/18 05:37:54;;;;;;;26.90;13.18;;;0.00;99.90;;;;;;5054383;28;20067;-74
2021/03/18 05:40:20;;;;;;;24.17;13.50;;;0.10;99.90;;;;;;5055500;28;20789;-74
2021/03/18 05:42:47;;;;;;;23.10;13.38;;;0.10;99.90;;;;;;5048234;28;20039;-74
2021/03/18 05:45:15;;;;;;;23.05;12.77;;;0.00;99.90;;;;;;5036613;28;20510;-73
2021/03/18 05:47:41;;;;;;;21.80;12.00;;;0.10;99.90;;;;;;5053588;28;20035;-71
2021/03/18 05:50:17;;;;;;;20.50;11.68;;;0.20;99.90;;;;;;5055526;28;20721;-71
2021/03/18 05:52:43;;;;;;;18.02;11.18;;;0.20;99.90;;;;;;5031110;28;20036;-71
2021/03/18 05:55:10;;;;;;;21.83;11.38;;;0.30;99.90;;;;;;5036593;28;20033;-71
2021/03/18 05:57:40;;;;;;;21.75;11.50;;;0.40;99.90;;;;;;5055058;28;20535;-70
2021/03/18 06:00:09;;;;;;;18.20;10.25;;;0.40;99.90;;;;;;5049406;28;20025;-70
2021/03/18 06:02:36;;;;;;;22.40;11.85;;;0.40;99.90;;;;;;5055928;28;20062;-68
2021/03/18 06:05:11;;;;;;;18.83;11.05;;;0.40;99.90;;;;;;5055265;28;20488;-69
2021/03/18 06:07:39;;;;;;;21.10;11.65;;;0.40;99.90;;;;;;5047574;28;20187;-70
2021/03/18 06:10:10;;;;;;;20.17;11.85;;;0.40;99.90;;;;;;5058676;28;20044;-69
2021/03/18 06:12:40;;;;;;;18.80;11.63;;;0.50;99.90;;;;;;5058596;28;20043;-69
2021/03/18 06:15:08;;;;;;;24.25;12.95;;;0.50;99.90;;;;;;5052518;28;20048;-69
2021/03/18 06:17:35;;;;;;;25.88;13.90;;;0.50;99.90;;;;;;5058878;28;20842;-69
2021/03/18 06:20:03;;;;;;;23.15;13.82;;;0.60;99.90;;;;;;5053776;28;20021;-69
2021/03/18 06:22:55;;;;;;;27.30;14.15;;;0.70;99.90;;;;;;5058011;28;20483;-69
2021/03/18 06:25:21;;;;;;;31.23;14.02;;;0.70;99.90;;;;;;5058546;28;20124;-69
2021/03/18 06:27:47;;;;;;;34.40;15.48;;;0.80;99.90;;;;;;5057942;28;20404;-69
2021/03/18 06:30:14;;;;;;;34.15;14.88;;;0.80;99.90;;;;;;5058018;28;20056;-70
2021/03/18 06:32:39;;;;;;;33.97;15.40;;;0.80;99.90;;;;;;5053618;28;20871;-71
2021/03/18 06:35:08;;;;;;;33.22;16.25;;;0.80;99.90;;;;;;5051827;28;20032;-70
2021/03/18 06:37:43;;;;;;;34.08;16.13;;;0.80;99.90;;;;;;5056706;28;20085;-70
2021/03/18 06:40:13;;;;;;;55.60;23.20;;;0.80;99.90;;;;;;5055792;28;20222;-70
2021/03/18 06:42:41;;;;;;;34.28;15.95;;;0.80;99.90;;;;;;5055880;28;20028;-70
2021/03/18 06:45:15;;;;;;;31.08;16.00;;;0.90;99.90;;;;;;5052892;28;20047;-70
2021/03/18 06:47:52;;;;;;;35.20;16.45;;;0.90;99.90;;;;;;5055611;28;20053;-70
2021/03/18 06:50:28;;;;;;;34.75;17.45;;;1.00;99.90;;;;;;5039503;28;20048;-70
2021/03/18 06:52:54;;;;;;;34.35;16.90;;;1.10;99.90;;;;;;5056817;28;20025;-70
2021/03/18 06:55:26;;;;;;;33.38;16.98;;;1.30;99.90;;;;;;5038450;28;20389;-70
2021/03/18 06:58:12;;;;;;;35.17;17.58;;;1.50;99.90;;;;;;5049424;28;20028;-70
2021/03/18 07:00:38;;;;;;;38.47;17.25;;;1.70;99.90;;;;;;5057742;28;20144;-70
2021/03/18 07:03:05;;;;;;;33.58;16.98;;;1.70;99.90;;;;;;5058296;28;20024;-70
2021/03/18 07:05:37;;;;;;;29.90;16.85;;;1.90;99.90;;;;;;5056293;28;20028;-69
2021/03/18 07:08:03;;;;;;;36.85;17.80;;;1.80;99.90;;;;;;5054173;28;20044;-70
2021/03/18 07:10:36;;;;;;;35.25;17.70;;;1.80;99.90;;;;;;5053522;28;20090;-70
2021/03/18 07:13:22;;;;;;;27.58;16.20;;;2.00;99.90;;;;;;5039215;28;20523;-70
2021/03/18 07:15:49;;;;;;;36.28;17.73;;;2.20;99.90;;;;;;5039139;28;20037;-70
2021/03/18 07:18:15;;;;;;;29.60;15.93;;;2.30;99.90;;;;;;5057492;28;20032;-70
2021/03/18 07:20:56;;;;;;;25.20;14.23;;;2.30;99.90;;;;;;5054296;28;20051;-70
2021/03/18 07:23:31;;;;;;;27.10;14.60;;;2.50;99.90;;;;;;5030752;28;20028;-70
2021/03/18 07:25:57;;;;;;;36.38;19.42;;;2.60;99.90;;;;;;5057539;28;20044;-70
2021/03/18 07:28:23;;;;;;;29.60;15.38;;;2.50;99.90;;;;;;5057069;28;20036;-70
2021/03/18 07:30:50;;;;;;;25.67;14.90;;;2.70;99.90;;;;;;5052135;28;20478;-70
2021/03/18 07:33:17;;;;;;;24.13;12.82;;;2.80;99.90;;;;;;5057428;28;20036;-70
2021/03/18 07:35:42;;;;;;;23.30;13.57;;;2.90;99.90;;;;;;5056962;28;20123;-71
2021/03/18 07:38:08;;;;;;;22.42;12.27;;;3.10;99.90;;;;;;5057750;28;20039;-70
2021/03/18 07:40:34;;;;;;;28.27;15.10;;;3.20;99.90;;;;;;5057552;28;20094;-70
2021/03/18 07:43:00;;;;;;;25.17;12.63;;;3.30;99.90;;;;;;5039358;28;20125;-71
2021/03/18 07:45:27;;;;;;;24.65;12.30;;;3.40;99.90;;;;;;5036346;28;20047;-70
2021/03/18 07:47:53;;;;;;;21.67;12.02;;;3.40;99.90;;;;;;5057834;28;20025;-70
2021/03/18 07:50:25;;;;;;;18.65;12.02;;;3.30;99.90;;;;;;5057225;28;20094;-70
2021/03/18 07:52:52;;;;;;;24.08;11.80;;;3.30;99.90;;;;;;5050279;28;20040;-70
2021/03/18 07:55:20;;;;;;;22.13;13.20;;;3.50;99.90;;;;;;5056965;28;20029;-69
2021/03/18 07:57:50;;;;;;;20.55;12.32;;;3.60;99.90;;;;;;5049007;28;20044;-71
2021/03/18 08:00:22;;;;;;;20.90;12.43;;;3.60;99.90;;;;;;5053923;28;20039;-70
2021/03/18 08:02:49;;;;;;;23.02;12.82;;;3.50;99.90;;;;;;5054982;28;20032;-70
2021/03/18 08:05:36;;;;;;;22.23;12.88;;;3.50;99.90;;;;;;5056873;28;20808;-70
2021/03/18 08:08:02;;;;;;;21.35;12.43;;;3.70;99.90;;;;;;5056466;28;20048;-65
2021/03/18 08:10:28;;;;;;;18.20;11.35;;;3.70;99.90;;;;;;5056744;28;20054;-65
2021/03/18 08:12:56;;;;;;;20.42;11.95;;;3.90;99.90;;;;;;5032103;28;20032;-65
2021/03/18 08:15:26;;;;;;;19.73;11.43;;;3.90;99.90;;;;;;5038005;28;20074;-65
2021/03/18 08:17:53;;;;;;;17.95;11.15;;;4.00;99.90;;;;;;5056121;28;20090;-65
2021/03/18 08:20:49;;;;;;;19.67;10.95;;;4.30;99.90;;;;;;5056613;28;20772;-66
2021/03/18 08:23:27;;;;;;;18.95;10.98;;;4.60;99.90;;;;;;5032190;28;20136;-64
2021/03/18 08:25:57;;;;;;;18.02;10.52;;;4.80;99.90;;;;;;5055069;28;20044;-65
2021/03/18 08:28:44;;;;;;;16.92;10.15;;;5.10;99.90;;;;;;5056053;28;20112;-63
2021/03/18 08:31:13;;;;;;;19.30;11.00;;;5.20;99.90;;;;;;5053891;28;20096;-63
2021/03/18 08:33:53;;;;;;;18.42;10.68;;;5.20;99.90;;;;;;5038053;28;20036;-63
2021/03/18 08:36:32;;;;;;;21.60;12.25;;;5.10;99.90;;;;;;5052652;28;20052;-63
2021/03/18 08:39:08;;;;;;;20.80;11.45;;;5.30;99.90;;;;;;5056103;28;20549;-63
2021/03/18 08:41:40;;;;;;;19.90;11.80;;;5.30;99.90;;;;;;5039172;28;20607;-63
2021/03/18 08:44:23;;;;;;;20.23;11.80;;;5.40;99.90;;;;;;5047356;28;20138;-65
2021/03/18 08:46:51;;;;;;;22.05;11.18;;;5.30;99.90;;;;;;5053413;28;20070;-63
2021/03/18 08:49:22;;;;;;;21.30;11.95;;;5.30;99.90;;;;;;5037422;28;20956;-63
2021/03/18 08:51:49;;;;;;;23.10;13.00;;;5.20;99.90;;;;;;5051900;28;20121;-63
2021/03/18 08:54:40;;;;;;;24.42;13.40;;;5.00;99.90;;;;;;5056058;28;20071;-63
2021/03/18 08:57:10;;;;;;;23.38;12.63;;;5.10;99.90;;;;;;5046599;28;20814;-63
2021/03/18 08:59:38;;;;;;;27.23;14.00;;;5.10;99.90;;;;;;5045227;28;20441;-72
2021/03/18 09:02:05;;;;;;;27.58;14.63;;;5.20;99.90;;;;;;5048284;28;20800;-63
2021/03/18 09:04:37;;;;;;;25.85;13.75;;;5.20;99.90;;;;;;5055118;28;20067;-63
2021/03/18 09:07:04;;;;;;;25.05;13.52;;;5.60;99.90;;;;;;5049011;28;20144;-62
2021/03/18 09:09:29;;;;;;;23.50;13.55;;;5.70;99.90;;;;;;5054591;28;20047;-62
2021/03/18 09:11:55;;;;;;;24.48;12.93;;;6.00;99.90;;;;;;5054976;28;20028;-64
2021/03/18 09:14:21;;;;;;;27.52;14.23;;;6.40;99.90;;;;;;5055065;28;20046;-64
2021/03/18 09:16:47;;;;;;;26.60;13.13;;;6.40;99.90;;;;;;5036673;28;20033;-64
2021/03/18 09:19:13;;;;;;;30.00;13.35;;;6.60;99.90;;;;;;5054944;28;20029;-64
2021/03/18 09:21:41;;;;;;;25.23;12.60;;;6.60;99.90;;;;;;5048875;28;20837;-64
2021/03/18 09:24:09;;;;;;;31.40;13.88;;;6.80;99.90;;;;;;5047001;28;20069;-73
2021/03/18 09:26:34;;;;;;;22.52;11.35;;;6.90;99.90;;;;;;5033751;28;20094;-65
2021/03/18 09:29:00;;;;;;;21.45;11.73;;;7.00;99.90;;;;;;5055237;28;20893;-67
2021/03/18 09:31:26;;;;;;;58.92;27.02;;;7.30;99.90;;;;;;5054879;28;20040;-65
2021/03/18 09:33:54;;;;;;;19.70;11.52;;;7.30;99.90;;;;;;5052698;28;20067;-65
2021/03/18 09:36:28;;;;;;;20.92;11.27;;;7.50;99.90;;;;;;5032757;28;20039;-65
2021/03/18 09:39:13;;;;;;;22.50;12.00;;;7.30;99.90;;;;;;5036839;28;20550;-66
2021/03/18 09:41:43;;;;;;;25.35;12.18;;;7.20;99.90;;;;;;5053767;28;20036;-64
2021/03/18 09:44:22;;;;;;;22.75;12.55;;;6.80;99.90;;;;;;5054609;28;20044;-63
2021/03/18 09:46:51;;;;;;;23.73;11.65;;;6.40;99.90;;;;;;5035987;28;20036;-65
2021/03/18 09:49:32;;;;;;;22.80;12.25;;;6.20;99.90;;;;;;5054157;28;20028;-64
2021/03/18 09:52:00;;;;;;;25.35;12.07;;;6.10;99.90;;;;;;5052269;28;20847;-64
2021/03/18 09:54:26;;;;;;;19.85;10.68;;;6.00;99.90;;;;;;5054172;28;20076;-64
2021/03/18 09:56:52;;;;;;;23.50;11.93;;;6.10;99.90;;;;;;5053563;28;20040;-64
2021/03/18 09:59:21;;;;;;;25.65;11.52;;;6.20;99.90;;;;;;5054843;28;20045;-64
2021/03/18 10:01:48;;;;;;;18.50;11.52;;;6.20;99.90;;;;;;5050958;28;20039;-64
2021/03/18 10:04:15;;;;;;;20.73;11.38;;;6.30;99.90;;;;;;5036885;28;20033;-64
2021/03/18 10:06:44;;;;;;;26.67;12.48;;;6.20;99.90;;;;;;5035721;28;20043;-64
2021/03/18 10:09:31;;;;;;;23.20;11.68;;;6.10;99.90;;;;;;5054618;28;20037;-64
2021/03/18 10:11:57;;;;;;;22.27;11.60;;;6.00;99.90;;;;;;5046143;28;20481;-64
2021/03/18 10:14:45;;;;;;;19.70;11.25;;;5.90;99.90;;;;;;5053233;28;20127;-64
2021/03/18 10:17:15;;;;;;;22.80;11.38;;;5.80;99.90;;;;;;5048065;28;20031;-64
2021/03/18 10:19:50;;;;;;;24.33;12.10;;;5.60;99.90;;;;;;5054477;28;20033;-64
2021/03/18 10:22:19;;;;;;;22.27;11.98;;;5.30;99.90;;;;;;5055297;28;20032;-64
2021/03/18 10:24:58;;;;;;;22.80;11.70;;;5.10;99.90;;;;;;5049910;28;20460;-64
2021/03/18 10:27:24;;;;;;;20.77;11.55;;;5.00;99.90;;;;;;5054560;28;20090;-64
2021/03/18 10:29:50;;;;;;;23.55;11.65;;;4.90;99.90;;;;;;5054120;28;20032;-64
2021/03/18 10:32:19;;;;;;;23.23;12.23;;;5.00;99.90;;;;;;5054227;28;20042;-63
2021/03/18 10:34:55;;;;;;;19.92;11.50;;;5.20;99.90;;;;;;5052015;28;20041;-64
2021/03/18 10:37:32;;;;;;;20.60;11.13;;;5.40;99.90;;;;;;5024584;28;20040;-64
2021/03/18 10:40:13;;;;;;;20.63;10.43;;;5.60;99.90;;;;;;5051516;28;20943;-64
2021/03/18 10:42:40;;;;;;;14.88;8.32;;;5.90;99.90;;;;;;5053189;28;20038;-64
2021/03/18 10:45:18;;;;;;;16.92;9.77;;;6.10;99.90;;;;;;5053624;28;20028;-64
2021/03/18 10:47:45;;;;;;;19.33;9.30;;;6.40;99.90;;;;;;5049994;28;20035;-64
2021/03/18 10:50:12;;;;;;;16.77;9.40;;;6.70;99.90;;;;;;5046791;28;20106;-64
2021/03/18 10:52:39;;;;;;;13.15;7.75;;;7.30;99.90;;;;;;5050443;28;20062;-64
2021/03/18 10:55:09;;;;;;;13.98;8.10;;;7.30;99.90;;;;;;5036911;28;20036;-64
2021/03/18 10:57:35;;;;;;;14.40;8.40;;;7.20;99.90;;;;;;5056818;28;20820;-64
2021/03/18 11:00:05;;;;;;;18.88;9.20;;;7.20;99.90;;;;;;5053300;28;20047;-64
2021/03/18 11:02:31;;;;;;;17.30;9.30;;;6.90;99.90;;;;;;5051029;28;20035;-64
2021/03/18 11:05:00;;;;;;;14.52;8.48;;;6.90;99.90;;;;;;5038859;28;20041;-64
2021/03/18 11:07:26;;;;;;;14.10;7.95;;;6.90;99.90;;;;;;5057869;28;20536;-64
2021/03/18 11:10:09;;;;;;;13.82;8.57;;;6.90;99.90;;;;;;5057364;28;20033;-64
2021/03/18 11:12:35;;;;;;;17.08;8.82;;;6.70;99.90;;;;;;5057418;28;20154;-64
2021/03/18 11:15:01;;;;;;;18.45;9.52;;;6.60;99.90;;;;;;5050377;28;20500;-64
2021/03/18 11:17:27;;;;;;;12.80;7.57;;;6.40;99.90;;;;;;5056754;28;20024;-65
2021/03/18 11:20:15;;;;;;;13.48;8.02;;;6.20;99.90;;;;;;5038801;28;20047;-64
2021/03/18 11:22:42;;;;;;;14.85;8.35;;;6.10;99.90;;;;;;5038766;28;20067;-64
2021/03/18 11:25:09;;;;;;;13.40;7.35;;;6.10;99.90;;;;;;5055690;28;20789;-64
2021/03/18 11:27:35;;;;;;;13.95;7.85;;;6.30;99.90;;;;;;5049736;28;20147;-64
2021/03/18 11:30:02;;;;;;;13.15;7.10;;;6.60;99.90;;;;;;5056813;28;20042;-64
2021/03/18 11:32:28;;;;;;;13.35;7.78;;;6.80;99.90;;;;;;5053620;28;20060;-62
2021/03/18 11:35:00;;;;;;;14.93;8.27;;;7.10;99.90;;;;;;5051022;28;20051;-64
2021/03/18 11:37:27;;;;;;;13.52;7.70;;;7.70;99.90;;;;;;5057099;28;20150;-64
2021/03/18 11:39:53;;;;;;;11.93;7.32;;;8.10;99.90;;;;;;5039383;28;20032;-64
2021/03/18 11:42:18;;;;;;;11.65;7.20;;;8.40;99.90;;;;;;5057759;28;20036;-64
2021/03/18 11:44:44;;;;;;;13.75;6.97;;;8.70;99.90;;;;;;5057681;28;20557;-64
2021/03/18 11:47:12;;;;;;;11.48;7.22;;;8.80;99.90;;;;;;5056468;28;20036;-64
2021/03/18 11:49:39;;;;;;;12.27;6.68;;;9.10;99.90;;;;;;5056903;28;20885;-64
2021/03/18 11:52:06;;;;;;;10.68;6.07;;;9.50;99.90;;;;;;5049285;28;20043;-63
2021/03/18 11:54:36;;;;;;;13.45;5.90;;;10.10;99.90;;;;;;5056770;28;20071;-64
2021/03/18 11:57:03;;;;;;;10.35;5.35;;;10.60;99.90;;;;;;5056247;28;20032;-64
2021/03/18 11:59:29;;;;;;;9.82;5.15;;;10.80;98.70;;;;;;5039601;28;20079;-64
2021/03/18 12:01:54;;;;;;;7.80;4.80;;;10.60;99.90;;;;;;5036223;28;20039;-64
2021/03/18 12:04:20;;;;;;;9.40;4.75;;;10.60;99.10;;;;;;5045833;28;20041;-64
2021/03/18 12:06:47;;;;;;;10.13;5.70;;;10.60;97.60;;;;;;5055918;28;20028;-64
2021/03/18 12:09:12;;;;;;;8.93;4.78;;;10.40;99.00;;;;;;5050622;28;20032;-65
2021/03/18 12:11:38;;;;;;;8.07;4.65;;;10.30;99.50;;;;;;5056106;28;20146;-65
2021/03/18 12:14:04;;;;;;;8.05;5.38;;;10.10;98.20;;;;;;5057042;28;20520;-65
2021/03/18 12:16:30;;;;;;;10.55;5.15;;;9.90;98.40;;;;;;5053847;28;20020;-65
2021/03/18 12:18:55;;;;;;;8.43;4.97;;;9.90;99.90;;;;;;5055821;28;20056;-64
2021/03/18 12:21:21;;;;;;;7.60;4.88;;;9.90;99.00;;;;;;5035844;28;20028;-64
2021/03/18 12:23:47;;;;;;;8.95;5.53;;;9.50;99.80;;;;;;5055259;28;20081;-64
2021/03/18 12:26:13;;;;;;;8.20;4.90;;;9.60;99.90;;;;;;5056268;28;20493;-65
2021/03/18 12:28:39;;;;;;;10.95;4.60;;;9.50;99.80;;;;;;5054335;28;20775;-64
2021/03/18 12:31:05;;;;;;;9.32;5.55;;;9.30;99.90;;;;;;5056444;28;20024;-64
2021/03/18 12:33:31;;;;;;;9.43;5.47;;;9.20;99.90;;;;;;5056778;28;20502;-64
2021/03/18 12:35:56;;;;;;;10.20;5.55;;;9.10;99.90;;;;;;5055196;28;20052;-65
2021/03/18 12:38:23;;;;;;;7.55;4.90;;;9.30;99.90;;;;;;5055679;28;20111;-64
2021/03/18 12:40:51;;;;;;;9.52;5.03;;;9.40;99.90;;;;;;5055361;28;20046;-64
2021/03/18 12:43:16;;;;;;;9.07;5.60;;;9.30;99.30;;;;;;5056572;28;20086;-64
2021/03/18 12:45:42;;;;;;;9.70;5.72;;;9.40;99.90;;;;;;5055709;28;20036;-64
2021/03/18 12:48:09;;;;;;;7.68;4.80;;;9.40;99.90;;;;;;5038707;28;20039;-64